Flight Track Log - Related Links

Times and Time Zones

All times are in EDT time to prevent confusion due to time zone crossing. See the UAL4663 flight status page for this flight to view local times or setup timezone preferences in your user account.

Time Position Orientation Groundspeed Altitude Reporting Facility
EDT Latitude Longitude Course Direction KTS MPH feet Rate Location/Type
Wed 07:19:07 PM 35.8514 -78.8311 223° Southwest 163 188 2,400  Level Washington Center
Wed 07:20:14 PM 35.8267 -78.8994 246° West 238 274 4,300 2,109 Climbing Washington Center
Wed 07:21:00 PM 36.1105 -78.6895 39° Northeast  Level FlightAware Approximate
Wed 07:21:15 PM 35.8975 -78.8997 360° North 286 329 6,900  Level Washington Center
Wed 07:21:39 PM 35.9189 -78.8853 29° Northeast 269 310 7,500 2,000 Climbing Washington Center
Wed 07:22:00 PM 36.1911 -78.6586 19° North  Level FlightAware Approximate
Wed 07:22:39 PM 35.9908 -78.8472 23° Northeast 301 346 9,700  Level Washington Center
Wed 07:23:00 PM 36.2724 -78.6259 15° North  Level FlightAware Approximate
Wed 07:23:39 PM 36.0650 -78.8014 27° Northeast 301 346 11,000  Level Washington Center
Wed 07:24:39 PM 36.1478 -78.7508 26° Northeast 319 367 12,400 1,500 Climbing Washington Center
Wed 07:25:39 PM 36.2453 -78.6956 25° Northeast 340 391 14,000 1,500 Climbing Washington Center
Wed 07:26:39 PM 36.3236 -78.6469 27° Northeast 345 397 15,400 1,250 Climbing Washington Center
Wed 07:27:39 PM 36.4167 -78.5964 24° Northeast 345 397 16,500 1,100 Climbing Washington Center
Wed 07:28:39 PM 36.5156 -78.5614 16° North 357 411 17,600 1,000 Climbing Washington Center
Wed 07:29:39 PM 36.6169 -78.5214 18° North 367 422 18,500 1,000 Climbing Washington Center
Wed 07:30:39 PM 36.7264 -78.4761 18° North 372 428 19,600 1,000 Climbing Washington Center
Wed 07:31:39 PM 36.8172 -78.4328 21° North 377 434 20,500 900 Climbing Washington Center
Wed 07:32:39 PM 36.9108 -78.3533 34° Northeast 382 440 21,400 950 Climbing Washington Center
Wed 07:33:39 PM 37.0103 -78.2917 26° Northeast 394 453 22,400 1,250 Climbing Washington Center
Wed 07:34:39 PM 37.1300 -78.2517 15° North 399 459 23,900 1,450 Climbing Washington Center
Wed 07:35:39 PM 37.2294 -78.1925 25° Northeast 394 453 25,300 1,400 Climbing Washington Center
Wed 07:36:39 PM 37.3044 -78.0983 45° Northeast 378 435 26,700 1,250 Climbing Washington Center
Wed 07:37:39 PM 37.3814 -78.0042 44° Northeast 378 435 27,800 1,050 Climbing Washington Center
Wed 07:38:39 PM 37.4606 -77.9100 43° Northeast 378 435 28,800 600 Climbing Washington Center
Wed 07:39:39 PM 37.5372 -77.8233 42° Northeast 378 435 29,000 100 Climbing Washington Center
Wed 07:40:39 PM 37.6158 -77.7494 37° Northeast 367 422 29,000  Level Washington Center
Wed 07:41:39 PM 37.6900 -77.6833 35° Northeast 344 396 29,000  Level Washington Center
Wed 07:42:39 PM 37.7661 -77.6144 36° Northeast 344 396 29,000  Level Washington Center
Wed 07:43:39 PM 37.8403 -77.5428 37° Northeast 338 389 29,000  Level Washington Center
Wed 07:44:39 PM 37.9186 -77.4739 35° Northeast 338 389 29,000  Level Washington Center
Wed 07:45:39 PM 38.0053 -77.3942 36° Northeast 352 405 29,000  Level Washington Center
Wed 07:46:39 PM 38.0942 -77.3147 35° Northeast 370 426 29,000  Level Washington Center
Wed 07:47:39 PM 38.1850 -77.2322 36° Northeast 390 449 29,000  Level Washington Center
Wed 07:48:39 PM 38.2758 -77.1442 37° Northeast 400 460 29,000  Level Washington Center
Wed 07:49:39 PM 38.3475 -77.0822 34° Northeast 400 460 29,000  Level Washington Center
Wed 07:50:39 PM 38.4550 -76.9783 37° Northeast 395 455 29,000  Level Washington Center
Wed 07:51:39 PM 38.5436 -76.8950 36° Northeast 395 455 29,000 -150 Level Washington Center
Wed 07:52:39 PM 38.6319 -76.8142 36° Northeast 390 449 28,700 -650 Descending Washington Center
Wed 07:53:39 PM 38.7203 -76.7278 37° Northeast 390 449 27,700 -750 Descending Washington Center
Wed 07:54:39 PM 38.8047 -76.6306 42° Northeast 390 449 27,200 -350 Descending Washington Center
Wed 07:55:39 PM 38.8847 -76.5383 42° Northeast 390 449 27,000 -100 Descending Washington Center
Wed 07:56:39 PM 38.9667 -76.4433 42° Northeast 390 449 27,000  Level Washington Center
Wed 07:57:39 PM 39.0464 -76.3506 42° Northeast 390 449 27,000  Level Washington Center
Wed 07:58:39 PM 39.1242 -76.2550 44° Northeast 390 449 27,000  Level Washington Center
Wed 07:59:39 PM 39.2017 -76.1675 41° Northeast 385 443 27,000  Level Washington Center
Wed 08:00:39 PM 39.2792 -76.0822 40° Northeast 385 443 27,000  Level Washington Center
Wed 08:01:39 PM 39.3608 -75.9889 41° Northeast 385 443 27,000 -100 Level Washington Center
Wed 08:02:39 PM 39.4486 -75.8844 43° Northeast 396 456 26,800 -700 Descending Washington Center
Wed 08:03:39 PM 39.5342 -75.7825 43° Northeast 408 470 25,600 -1,500 Descending Washington Center
Wed 08:04:39 PM 39.6178 -75.6831 42° Northeast 408 470 23,800 -1,850 Descending Washington Center
Wed 08:05:39 PM 39.6989 -75.5861 43° Northeast 403 464 21,900 -1,900 Descending Washington Center
Wed 08:06:39 PM 39.7803 -75.4889 43° Northeast 391 450 20,000 -2,000 Descending Washington Center
Wed 08:07:39 PM 39.8572 -75.3969 43° Northeast 391 450 17,900 -2,000 Descending Washington Center
Wed 08:08:39 PM 39.9300 -75.3075 43° Northeast 373 429 16,000 -2,100 Descending Washington Center
Wed 08:09:39 PM 40.0006 -75.2206 43° Northeast 357 411 13,700 -1,950 Descending Washington Center
Wed 08:10:39 PM 40.0669 -75.1386 43° Northeast 334 384 12,100 -1,350 Descending Washington Center
Wed 08:11:39 PM 40.1311 -75.0622 42° Northeast 323 372 11,000 -1,200 Descending Washington Center
Wed 08:12:39 PM 40.1892 -74.9886 44° Northeast 299 344 9,700 -1,234 Descending Washington Center
Wed 08:14:00 PM 40.2667 -74.8833 46° Northeast 284 327 8,100 -809 Descending New York TRACON
Wed 08:15:00 PM 40.3333 -74.8000 44° Northeast 280 322 7,800 -850 Descending New York TRACON
Wed 08:16:00 PM 40.3833 -74.7333 45° Northeast 272 313 6,400 -900 Descending New York TRACON
Wed 08:17:00 PM 40.4333 -74.6667 45° Northeast 253 291 6,000 -694 Descending New York TRACON
Wed 08:18:01 PM 40.4333 -74.5667 90° East 260 299 5,000 -1,200 Descending New York TRACON
Wed 08:19:00 PM 40.4167 -74.4833 105° East 253 291 3,600 -1,008 Descending New York TRACON
Wed 08:20:00 PM 40.4167 -74.4000 90° East 220 253 3,000 -250 Descending New York TRACON
Wed 08:21:00 PM 40.4500 -74.3500 49° Northeast 188 216 3,100 -150 Climbing New York TRACON
Wed 08:22:00 PM 40.4833 -74.3000 49° Northeast 189 217 2,700 -397 Descending New York TRACON
Wed 08:23:01 PM 40.5333 -74.2667 27° Northeast 179 206 2,300 -400 Descending New York TRACON
Wed 08:24:00 PM 40.5833 -74.2333 27° Northeast 179 206 1,900 -407 Descending New York TRACON

Login

Don't have an account? Register now (free) for customized features, flight alerts, and more!